Clear sky
http://www.flightutilities.com

QR Code
SBPL 160300Z 15009KT CAVOK 26/13 Q1018

Location: SBPL
PETROLINA - BRAZIL (PE)
Latitude: 09°21'54"S - Longitude: 040°33'59"W.
Magnetic declination: 22.6°W
Sunrise: 08:52 UTC
Sunset: 20:41 UTC
Report emitted the day: 16, time 03:00 UTC
Thursday 16 August 2018 03:00 Greenwich time.
Wind: True direction = 150 degrees, speed: 9 knots (17 km/h) (5 m/s).
Runway 13, length 9843 feet, altitude 1249 feet: Cross Wind 6 KT Right - Centerline Wind 7 KT front.
Runway 31, length 9843 feet, altitude 1259 feet: Cross Wind 6 KT Left - Centerline Wind 7 KT rear.
CAVOK conditions: Visibility 10 km or more,
no cloud below 5,000 feet or below the MSA (whichever is greater),
no cumulonimbus, and no significant weather phenomena in
the aerodrome or its vicinity.
Temperature: 26 degrees Celsius (79 Fahrenheit). Dewpoint: 13 degrees Celsius (55 Fahrenheit). Relative humidity 44.61 %.
QNH (Sea-level pressure): 1018 hPa (30.06 inches).
0:52
Metar reliability - Emission time in hours and minutes
NOAA
Visual Flight Rules
9 KT
Wind
26/13
Temperature / Dewpoint
>10Km
Minimum horizontal visibility
 
Clear sky
1018
Sea level pressure
22.6°W
Magnetic declination
08:52 Z
Sunrise
20:41 Z
Sunset
Map
Show on Google Maps